createdAt,value
2022-09-23T00:01:00.678Z,100.00
2022-09-23T00:03:28.719Z,100.00
2022-09-23T00:06:05.885Z,100.00
2022-09-23T00:08:33.371Z,100.00
2022-09-23T00:11:08.399Z,100.00
2022-09-23T00:13:36.192Z,100.00
2022-09-23T00:16:04.916Z,100.00
2022-09-23T00:18:31.620Z,100.00
2022-09-23T00:20:58.269Z,100.00
2022-09-23T00:23:24.888Z,100.00
2022-09-23T00:25:59.652Z,100.00
2022-09-23T00:28:26.361Z,100.00
2022-09-23T00:30:53.006Z,100.00
2022-09-23T00:33:19.674Z,100.00
2022-09-23T00:35:46.342Z,100.00
2022-09-23T00:38:14.219Z,100.00
2022-09-23T00:40:46.149Z,100.00
2022-09-23T00:43:14.152Z,100.00
2022-09-23T00:45:46.750Z,100.00
2022-09-23T00:48:22.484Z,100.00
2022-09-23T00:50:53.474Z,100.00
2022-09-23T00:53:24.077Z,100.00
2022-09-23T00:55:54.821Z,100.00
2022-09-23T00:58:27.941Z,100.00
2022-09-23T01:00:55.583Z,100.00
2022-09-23T01:03:22.983Z,100.00
2022-09-23T01:05:50.299Z,100.00
2022-09-23T01:08:17.569Z,100.00
2022-09-23T01:11:24.960Z,100.00
2022-09-23T01:14:06.608Z,100.00
2022-09-23T01:16:42.917Z,100.00
2022-09-23T01:19:21.590Z,100.00
2022-09-23T01:21:57.064Z,100.00
2022-09-23T01:24:46.206Z,100.00
2022-09-23T01:27:46.762Z,100.00
2022-09-23T01:30:48.810Z,100.00
2022-09-23T01:33:36.783Z,100.00
2022-09-23T01:36:13.767Z,100.00
2022-09-23T01:39:10.906Z,100.00
2022-09-23T01:41:52.788Z,100.00
2022-09-23T01:44:39.111Z,100.00
2022-09-23T01:47:14.662Z,100.00
2022-09-23T01:49:57.308Z,100.00
2022-09-23T01:52:35.381Z,100.00
2022-09-23T01:55:26.868Z,100.00
2022-09-23T01:58:01.066Z,100.00
2022-09-23T02:00:30.058Z,100.00
2022-09-23T02:03:05.972Z,100.00
2022-09-23T02:05:44.656Z,100.00
2022-09-23T02:08:11.202Z,100.00
2022-09-23T02:10:53.813Z,100.00
2022-09-23T02:13:30.934Z,100.00
2022-09-23T02:16:01.355Z,100.00
2022-09-23T02:18:38.818Z,100.00
2022-09-23T02:21:09.488Z,100.00
2022-09-23T02:23:42.479Z,100.00
2022-09-23T02:26:19.387Z,100.00
2022-09-23T02:28:53.522Z,100.00
2022-09-23T02:31:30.664Z,100.00
2022-09-23T02:33:59.985Z,100.00
2022-09-23T02:36:31.458Z,100.00
2022-09-23T02:39:06.039Z,100.00
2022-09-23T02:41:44.897Z,100.00
2022-09-23T02:44:15.960Z,100.00
2022-09-23T02:46:43.677Z,100.00
2022-09-23T02:49:15.932Z,100.00
2022-09-23T02:51:42.778Z,100.00
2022-09-23T02:54:14.888Z,100.00
2022-09-23T02:56:42.156Z,100.00
2022-09-23T02:59:10.086Z,100.00
2022-09-23T03:01:47.836Z,100.00
2022-09-23T03:04:21.534Z,100.00
2022-09-23T03:07:06.298Z,100.00
2022-09-23T03:09:44.570Z,100.00
2022-09-23T03:12:21.499Z,100.00
2022-09-23T03:14:59.095Z,100.00
2022-09-23T03:17:34.229Z,100.00
2022-09-23T03:20:12.549Z,100.00
2022-09-23T03:22:48.792Z,100.00
2022-09-23T03:25:21.264Z,100.00
2022-09-23T03:27:48.130Z,100.00
2022-09-23T03:30:14.924Z,100.00
2022-09-23T03:32:45.508Z,100.00
2022-09-23T03:35:13.403Z,100.00
2022-09-23T03:38:09.502Z,100.00
2022-09-23T03:40:43.601Z,100.00
2022-09-23T03:43:13.421Z,100.00
2022-09-23T03:45:42.602Z,100.00
2022-09-23T03:48:09.547Z,100.00
2022-09-23T03:50:36.349Z,100.00
2022-09-23T03:53:03.008Z,100.00
2022-09-23T03:55:29.581Z,100.00
2022-09-23T03:57:56.740Z,100.00
2022-09-23T04:00:23.566Z,100.00
2022-09-23T04:02:50.147Z,100.00
2022-09-23T04:05:17.909Z,100.00
2022-09-23T04:07:44.985Z,100.00
2022-09-23T04:10:11.790Z,100.00
2022-09-23T04:12:38.548Z,100.00
2022-09-23T04:15:05.696Z,100.00
2022-09-23T04:17:32.305Z,100.00
2022-09-23T04:19:58.973Z,100.00
2022-09-23T04:22:25.725Z,100.00
2022-09-23T04:24:52.340Z,100.00
2022-09-23T04:27:18.973Z,100.00
2022-09-23T04:29:45.557Z,100.00
2022-09-23T04:32:12.203Z,100.00
2022-09-23T04:34:38.825Z,100.00
2022-09-23T04:37:05.367Z,100.00
2022-09-23T04:39:32.009Z,100.00
2022-09-23T04:41:59.662Z,100.00
2022-09-23T04:44:28.103Z,100.00
2022-09-23T04:46:54.825Z,100.00
2022-09-23T04:49:21.428Z,100.00
2022-09-23T04:51:48.030Z,100.00
2022-09-23T04:54:15.072Z,100.00
2022-09-23T04:56:42.474Z,100.00
2022-09-23T04:59:09.099Z,100.00
2022-09-23T05:01:36.587Z,100.00
2022-09-23T05:04:07.511Z,100.00
2022-09-23T05:06:35.456Z,100.00
2022-09-23T05:09:04.624Z,100.00
2022-09-23T05:11:31.622Z,100.00
2022-09-23T05:13:59.001Z,100.00
2022-09-23T05:16:27.121Z,100.00
2022-09-23T05:18:54.451Z,100.00
2022-09-23T05:21:23.355Z,100.00
2022-09-23T05:23:55.283Z,100.00
2022-09-23T05:26:25.294Z,100.00
2022-09-23T05:28:52.608Z,100.00
2022-09-23T05:31:21.793Z,100.00
2022-09-23T05:34:02.423Z,100.00
2022-09-23T05:36:35.530Z,100.00
2022-09-23T05:39:05.416Z,100.00
2022-09-23T05:41:33.879Z,100.00
2022-09-23T05:44:01.103Z,100.00
2022-09-23T05:46:29.948Z,100.00
2022-09-23T05:49:02.103Z,100.00
2022-09-23T05:51:31.075Z,100.00
2022-09-23T05:53:58.816Z,100.00
2022-09-23T05:56:27.534Z,100.00
2022-09-23T05:58:56.215Z,100.00
2022-09-23T06:01:25.647Z,100.00
2022-09-23T06:03:53.575Z,100.00
2022-09-23T06:06:26.111Z,100.00
2022-09-23T06:08:52.745Z,100.00
2022-09-23T06:11:21.427Z,100.00
2022-09-23T06:13:49.365Z,100.00
2022-09-23T06:16:16.596Z,100.00
2022-09-23T06:18:45.129Z,100.00
2022-09-23T06:21:17.128Z,100.00
2022-09-23T06:23:44.899Z,100.00
2022-09-23T06:26:14.302Z,100.00
2022-09-23T06:28:42.933Z,100.00
2022-09-23T06:31:16.864Z,100.00
2022-09-23T06:33:44.979Z,100.00
2022-09-23T06:36:19.379Z,100.00
2022-09-23T06:38:51.194Z,100.00
2022-09-23T06:41:17.860Z,100.00
2022-09-23T06:43:44.466Z,100.00
2022-09-23T06:46:15.587Z,100.00
2022-09-23T06:48:46.413Z,100.00
2022-09-23T06:51:22.951Z,100.00
2022-09-23T06:53:49.984Z,100.00
2022-09-23T06:56:17.907Z,100.00
2022-09-23T06:58:44.509Z,100.00
2022-09-23T07:01:13.413Z,100.00
2022-09-23T07:03:40.033Z,100.00
2022-09-23T07:06:07.206Z,100.00
2022-09-23T07:08:35.073Z,100.00
2022-09-23T07:11:06.576Z,100.00
2022-09-23T07:13:34.290Z,100.00
2022-09-23T07:16:02.172Z,100.00
2022-09-23T07:18:36.731Z,100.00
2022-09-23T07:21:15.746Z,100.00
2022-09-23T07:23:45.986Z,100.00
2022-09-23T07:26:14.156Z,100.00
2022-09-23T07:28:40.820Z,100.00
2022-09-23T07:31:10.070Z,100.00
2022-09-23T07:33:38.467Z,100.00
2022-09-23T07:36:08.441Z,100.00
2022-09-23T07:38:35.446Z,100.00
2022-09-23T07:41:10.268Z,100.00
2022-09-23T07:43:37.897Z,100.00
2022-09-23T07:46:08.486Z,100.00
2022-09-23T07:48:36.067Z,100.00
2022-09-23T07:51:21.252Z,100.00
2022-09-23T07:53:49.321Z,100.00
2022-09-23T07:56:17.314Z,100.00
2022-09-23T07:58:43.941Z,100.00
2022-09-23T08:01:12.145Z,100.00
2022-09-23T08:03:39.440Z,100.00
2022-09-23T08:06:12.253Z,100.00
2022-09-23T08:08:43.408Z,100.00
2022-09-23T08:11:13.210Z,100.00
2022-09-23T08:13:40.479Z,100.00
2022-09-23T08:16:07.174Z,100.00
2022-09-23T08:18:34.504Z,100.00
2022-09-23T08:21:01.404Z,100.00
2022-09-23T08:23:33.260Z,100.00
2022-09-23T08:26:02.834Z,100.00
2022-09-23T08:28:30.226Z,100.00
2022-09-23T08:30:57.033Z,100.00
2022-09-23T08:33:24.109Z,100.00
2022-09-23T08:35:52.148Z,100.00
2022-09-23T08:38:20.412Z,100.00
2022-09-23T08:40:49.596Z,100.00
2022-09-23T08:43:26.685Z,100.00
2022-09-23T08:45:56.835Z,100.00
2022-09-23T08:48:30.043Z,100.00
2022-09-23T08:51:05.274Z,100.00
2022-09-23T08:53:36.647Z,100.00
2022-09-23T08:56:07.222Z,100.00
2022-09-23T08:58:39.814Z,100.00
2022-09-23T09:01:34.648Z,100.00
2022-09-23T09:04:05.773Z,100.00
2022-09-23T09:06:52.384Z,100.00
2022-09-23T09:09:29.237Z,100.00
2022-09-23T09:12:14.181Z,100.00
2022-09-23T09:14:58.137Z,100.00
2022-09-23T09:17:48.365Z,100.00
2022-09-23T09:20:14.974Z,100.00
2022-09-23T09:22:48.408Z,100.00
2022-09-23T09:25:34.129Z,100.00
2022-09-23T09:28:01.387Z,100.00
2022-09-23T09:30:28.311Z,100.00
2022-09-23T09:33:01.959Z,100.00
2022-09-23T09:35:42.000Z,100.00
2022-09-23T09:38:08.677Z,100.00
2022-09-23T09:40:35.390Z,100.00
2022-09-23T09:43:05.449Z,100.00
2022-09-23T09:46:06.619Z,100.00
2022-09-23T09:48:39.264Z,100.00
2022-09-23T09:51:24.383Z,100.00
2022-09-23T09:53:55.683Z,100.00
2022-09-23T09:56:34.585Z,100.00
2022-09-23T09:59:10.889Z,100.00
2022-09-23T10:01:38.055Z,100.00
2022-09-23T10:04:19.894Z,100.00
2022-09-23T10:07:16.691Z,100.00
2022-09-23T10:09:50.890Z,100.00
2022-09-23T10:12:18.987Z,100.00
2022-09-23T10:14:50.569Z,100.00
2022-09-23T10:17:24.543Z,100.00
2022-09-23T10:20:00.843Z,100.00
2022-09-23T10:22:33.306Z,100.00
2022-09-23T10:25:07.431Z,100.00
2022-09-23T10:27:36.133Z,100.00
2022-09-23T10:30:21.594Z,100.00
2022-09-23T10:32:48.811Z,100.00
2022-09-23T10:35:22.605Z,100.00
2022-09-23T10:37:56.522Z,100.00
2022-09-23T10:40:54.220Z,100.00
2022-09-23T10:43:45.701Z,100.00
2022-09-23T10:46:38.529Z,99.65
2022-09-23T10:49:40.436Z,95.66
2022-09-23T10:52:42.538Z,94.88
2022-09-23T10:55:37.152Z,93.07
2022-09-23T10:58:25.637Z,92.89
2022-09-23T11:01:05.816Z,87.69
2022-09-23T11:03:50.831Z,82.94
2022-09-23T11:06:26.772Z,84.42
2022-09-23T11:09:07.479Z,86.39
2022-09-23T11:11:46.312Z,83.99
2022-09-23T11:14:23.870Z,82.43
2022-09-23T11:16:53.490Z,81.87
2022-09-23T11:19:45.854Z,81.90
2022-09-23T11:22:32.239Z,80.42
2022-09-23T11:25:40.278Z,80.85
2022-09-23T11:28:37.927Z,80.41
2022-09-23T11:31:25.468Z,79.41
2022-09-23T11:34:01.707Z,79.99
2022-09-23T11:36:37.370Z,78.54
2022-09-23T11:39:19.532Z,75.59
2022-09-23T11:41:48.197Z,75.83
2022-09-23T11:44:31.786Z,78.38
2022-09-23T11:47:07.563Z,73.39
2022-09-23T11:49:43.204Z,73.15
2022-09-23T11:52:20.585Z,71.48
2022-09-23T11:54:56.542Z,70.82
2022-09-23T11:57:26.210Z,72.13
2022-09-23T12:00:12.708Z,69.36
2022-09-23T12:03:05.619Z,69.02
2022-09-23T12:05:44.687Z,67.21
2022-09-23T12:08:28.581Z,67.08
2022-09-23T12:11:06.500Z,67.26
2022-09-23T12:13:49.637Z,64.47
2022-09-23T12:16:53.682Z,63.40
2022-09-23T12:19:28.142Z,61.59
2022-09-23T12:22:09.738Z,60.18
2022-09-23T12:24:50.328Z,62.23
2022-09-23T12:27:25.046Z,60.53
2022-09-23T12:29:56.862Z,60.00
2022-09-23T12:32:24.994Z,61.75
2022-09-23T12:34:53.439Z,59.27
2022-09-23T12:37:45.278Z,57.30
2022-09-23T12:40:28.302Z,55.68
2022-09-23T12:42:55.145Z,54.98
2022-09-23T12:45:32.609Z,53.89
2022-09-23T12:48:00.865Z,54.01
2022-09-23T12:50:46.174Z,54.58
2022-09-23T12:53:34.783Z,53.18
2022-09-23T12:56:19.759Z,52.82
2022-09-23T12:58:46.305Z,55.05
2022-09-23T13:01:17.128Z,53.96
2022-09-23T13:04:10.737Z,54.63
2022-09-23T13:06:56.586Z,54.11
2022-09-23T13:09:27.347Z,53.34
2022-09-23T13:11:59.882Z,52.48
2022-09-23T13:14:29.066Z,54.75
2022-09-23T13:16:58.489Z,55.14
2022-09-23T13:19:28.071Z,55.99
2022-09-23T13:21:54.601Z,56.23
2022-09-23T13:24:31.082Z,56.71
2022-09-23T13:27:13.052Z,58.78
2022-09-23T13:30:04.846Z,58.74
2022-09-23T13:32:35.787Z,57.14
2022-09-23T13:35:18.638Z,54.61
2022-09-23T13:37:49.718Z,55.61
2022-09-23T13:40:19.604Z,55.76
2022-09-23T13:43:00.397Z,55.71
2022-09-23T13:45:29.501Z,56.43
2022-09-23T13:48:07.388Z,55.28
2022-09-23T13:50:38.482Z,55.04
2022-09-23T13:53:13.302Z,54.60
2022-09-23T13:55:41.006Z,55.11
2022-09-23T13:58:17.334Z,56.45
2022-09-23T14:00:44.555Z,54.43
2022-09-23T14:03:26.300Z,53.81
2022-09-23T14:05:55.403Z,53.97
2022-09-23T14:08:22.746Z,54.53
2022-09-23T14:10:49.659Z,53.58
2022-09-23T14:13:34.026Z,53.87
2022-09-23T14:16:04.099Z,52.11
2022-09-23T14:18:36.607Z,51.43
2022-09-23T14:21:04.031Z,50.44
2022-09-23T14:23:31.001Z,52.29
2022-09-23T14:25:59.063Z,51.41
2022-09-23T14:28:27.660Z,52.82
2022-09-23T14:30:58.353Z,52.99
2022-09-23T14:33:33.339Z,53.60
2022-09-23T14:36:29.287Z,53.76
2022-09-23T14:39:12.536Z,52.98
2022-09-23T14:41:42.601Z,53.10
2022-09-23T14:44:25.061Z,53.87
2022-09-23T14:46:59.664Z,53.50
2022-09-23T14:49:27.449Z,52.12
2022-09-23T14:52:01.267Z,52.31
2022-09-23T14:54:40.030Z,55.45
2022-09-23T14:57:25.468Z,54.11
2022-09-23T15:00:01.338Z,54.17
2022-09-23T15:02:28.976Z,54.08
2022-09-23T15:05:17.861Z,54.46
2022-09-23T15:07:52.584Z,55.05
2022-09-23T15:10:30.443Z,53.97
2022-09-23T15:13:07.307Z,54.19
2022-09-23T15:15:35.619Z,55.46
2022-09-23T15:18:08.053Z,55.03
2022-09-23T15:20:35.882Z,54.41
2022-09-23T15:23:02.555Z,54.83
2022-09-23T15:25:33.685Z,57.06
2022-09-23T15:28:15.878Z,54.67
2022-09-23T15:30:42.817Z,53.88
2022-09-23T15:33:14.893Z,53.02
2022-09-23T15:35:46.560Z,54.99
2022-09-23T15:38:13.637Z,55.86
2022-09-23T15:40:40.381Z,56.95
2022-09-23T15:43:20.505Z,57.30
2022-09-23T15:45:54.706Z,57.01
2022-09-23T15:48:27.840Z,55.88
2022-09-23T15:50:55.032Z,58.02
2022-09-23T15:53:24.538Z,57.19
2022-09-23T15:55:51.620Z,59.26
2022-09-23T15:58:19.204Z,58.79
2022-09-23T16:00:46.913Z,57.62
2022-09-23T16:03:15.114Z,56.26
2022-09-23T16:05:47.262Z,58.61
2022-09-23T16:08:14.767Z,57.15
2022-09-23T16:10:43.047Z,57.46
2022-09-23T16:13:13.929Z,59.61
2022-09-23T16:15:41.362Z,58.74
2022-09-23T16:18:09.688Z,59.08
2022-09-23T16:20:39.253Z,59.42
2022-09-23T16:23:39.628Z,61.45
2022-09-23T16:26:13.892Z,63.11
2022-09-23T16:29:09.493Z,65.67
2022-09-23T16:31:40.093Z,68.59
2022-09-23T16:34:07.125Z,74.48
2022-09-23T16:36:39.507Z,74.28
2022-09-23T16:39:09.666Z,76.88
2022-09-23T16:41:36.968Z,83.88
2022-09-23T16:44:07.369Z,92.23
2022-09-23T16:46:34.853Z,92.88
2022-09-23T16:49:01.567Z,93.78
2022-09-23T16:51:38.271Z,95.08
2022-09-23T16:54:10.093Z,97.68
2022-09-23T16:56:38.673Z,100.00
2022-09-23T16:59:05.489Z,100.00
2022-09-23T17:01:50.982Z,100.00
2022-09-23T17:04:19.314Z,100.00
2022-09-23T17:06:50.101Z,100.00
2022-09-23T17:09:18.890Z,100.00
2022-09-23T17:11:49.033Z,100.00
2022-09-23T17:14:16.436Z,100.00
2022-09-23T17:16:43.737Z,100.00
2022-09-23T17:19:11.839Z,100.00
2022-09-23T17:21:39.112Z,100.00
2022-09-23T17:24:05.957Z,100.00
2022-09-23T17:26:32.954Z,100.00
2022-09-23T17:29:01.498Z,100.00
2022-09-23T17:31:28.370Z,100.00
2022-09-23T17:33:55.397Z,100.00
2022-09-23T17:36:22.079Z,100.00
2022-09-23T17:38:49.526Z,100.00
2022-09-23T17:41:18.035Z,100.00
2022-09-23T17:43:45.404Z,100.00
2022-09-23T17:46:14.610Z,100.00
2022-09-23T17:48:43.256Z,100.00
2022-09-23T17:51:16.060Z,100.00
2022-09-23T17:53:45.356Z,100.00
2022-09-23T17:56:17.160Z,100.00
2022-09-23T17:58:44.878Z,100.00
2022-09-23T18:01:20.360Z,100.00
2022-09-23T18:03:47.835Z,100.00
2022-09-23T18:06:18.220Z,100.00
2022-09-23T18:08:48.614Z,100.00
2022-09-23T18:11:23.768Z,100.00
2022-09-23T18:13:59.381Z,100.00
2022-09-23T18:16:29.133Z,100.00
2022-09-23T18:19:01.938Z,100.00
2022-09-23T18:21:31.681Z,100.00
2022-09-23T18:24:21.381Z,100.00
2022-09-23T18:26:47.254Z,100.00
2022-09-23T18:29:14.122Z,100.00
2022-09-23T18:31:41.174Z,100.00
2022-09-23T18:34:16.192Z,100.00
2022-09-23T18:36:43.499Z,100.00
2022-09-23T18:39:10.132Z,100.00
2022-09-23T18:41:36.949Z,100.00
2022-09-23T18:44:06.657Z,100.00
2022-09-23T18:46:33.304Z,100.00
2022-09-23T18:49:18.747Z,100.00
2022-09-23T18:51:57.389Z,100.00
2022-09-23T18:54:26.092Z,100.00
2022-09-23T18:56:53.224Z,100.00
2022-09-23T18:59:24.676Z,100.00
2022-09-23T19:01:51.593Z,100.00
2022-09-23T19:04:20.394Z,100.00
2022-09-23T19:06:47.813Z,100.00
2022-09-23T19:09:15.767Z,100.00
2022-09-23T19:11:42.928Z,100.00
2022-09-23T19:14:11.397Z,100.00
2022-09-23T19:16:39.786Z,100.00
2022-09-23T19:19:06.895Z,100.00
2022-09-23T19:21:33.869Z,100.00
2022-09-23T19:24:05.628Z,100.00
2022-09-23T19:26:37.486Z,100.00
2022-09-23T19:29:05.635Z,100.00
2022-09-23T19:31:35.114Z,100.00
2022-09-23T19:34:10.813Z,100.00
2022-09-23T19:36:40.052Z,100.00
2022-09-23T19:39:11.969Z,100.00
2022-09-23T19:41:38.649Z,100.00
2022-09-23T19:44:07.548Z,100.00
2022-09-23T19:46:37.734Z,100.00
2022-09-23T19:49:06.271Z,100.00
2022-09-23T19:51:36.995Z,100.00
2022-09-23T19:54:05.601Z,100.00
2022-09-23T19:56:33.426Z,100.00
2022-09-23T19:59:02.953Z,100.00
2022-09-23T20:01:30.484Z,100.00
2022-09-23T20:03:57.385Z,100.00
2022-09-23T20:06:24.093Z,100.00
2022-09-23T20:08:50.798Z,100.00
2022-09-23T20:11:23.669Z,100.00
2022-09-23T20:14:01.205Z,100.00
2022-09-23T20:16:31.852Z,100.00
2022-09-23T20:18:59.808Z,100.00
2022-09-23T20:21:28.330Z,100.00
2022-09-23T20:23:55.730Z,100.00
2022-09-23T20:26:41.160Z,100.00
2022-09-23T20:29:08.945Z,100.00
2022-09-23T20:31:35.735Z,100.00
2022-09-23T20:34:05.745Z,100.00
2022-09-23T20:36:34.054Z,100.00
2022-09-23T20:39:03.536Z,100.00
2022-09-23T20:41:33.585Z,100.00
2022-09-23T20:44:00.340Z,100.00
2022-09-23T20:46:28.609Z,100.00
2022-09-23T20:48:56.699Z,100.00
2022-09-23T20:51:24.895Z,100.00
2022-09-23T20:53:52.954Z,100.00
2022-09-23T20:56:21.238Z,100.00
2022-09-23T20:58:50.453Z,100.00
2022-09-23T21:01:17.772Z,100.00
2022-09-23T21:03:46.013Z,100.00
2022-09-23T21:06:15.540Z,100.00
2022-09-23T21:08:43.546Z,100.00
2022-09-23T21:11:12.793Z,100.00
2022-09-23T21:13:39.812Z,100.00
2022-09-23T21:16:10.690Z,100.00
2022-09-23T21:18:38.379Z,100.00
2022-09-23T21:21:06.333Z,100.00
2022-09-23T21:23:35.768Z,100.00
2022-09-23T21:26:04.376Z,100.00
2022-09-23T21:28:32.191Z,100.00
2022-09-23T21:31:02.334Z,100.00
2022-09-23T21:33:30.482Z,100.00
2022-09-23T21:35:58.940Z,100.00
2022-09-23T21:38:25.548Z,100.00
2022-09-23T21:40:59.709Z,100.00
2022-09-23T21:43:28.110Z,100.00
2022-09-23T21:45:59.572Z,100.00
2022-09-23T21:48:28.845Z,100.00
2022-09-23T21:51:01.186Z,100.00
2022-09-23T21:53:30.325Z,100.00
2022-09-23T21:56:21.456Z,100.00
2022-09-23T21:58:48.339Z,100.00
2022-09-23T22:01:18.688Z,100.00
2022-09-23T22:03:50.880Z,100.00
2022-09-23T22:06:21.660Z,100.00
2022-09-23T22:08:51.031Z,100.00
2022-09-23T22:11:38.943Z,100.00
2022-09-23T22:14:08.070Z,100.00
2022-09-23T22:16:35.973Z,100.00
2022-09-23T22:19:06.878Z,100.00
2022-09-23T22:21:36.549Z,100.00
2022-09-23T22:24:04.903Z,100.00
2022-09-23T22:26:33.999Z,100.00
2022-09-23T22:29:19.307Z,100.00
2022-09-23T22:32:04.591Z,100.00
2022-09-23T22:34:49.138Z,100.00
2022-09-23T22:37:19.486Z,100.00
2022-09-23T22:39:46.271Z,100.00
2022-09-23T22:42:13.326Z,100.00
2022-09-23T22:44:39.939Z,100.00
2022-09-23T22:47:06.628Z,100.00
2022-09-23T22:49:33.375Z,100.00
2022-09-23T22:52:00.183Z,100.00
2022-09-23T22:54:33.618Z,100.00
2022-09-23T22:57:04.022Z,100.00
2022-09-23T22:59:30.749Z,100.00
2022-09-23T23:01:59.903Z,100.00
2022-09-23T23:04:27.001Z,100.00
2022-09-23T23:06:53.572Z,100.00
2022-09-23T23:09:20.244Z,100.00
2022-09-23T23:11:47.252Z,100.00
2022-09-23T23:14:16.631Z,100.00
2022-09-23T23:16:45.164Z,100.00
2022-09-23T23:19:14.298Z,100.00
2022-09-23T23:21:44.789Z,100.00
2022-09-23T23:24:20.213Z,100.00
2022-09-23T23:26:47.164Z,100.00
2022-09-23T23:29:15.726Z,100.00
2022-09-23T23:31:43.140Z,100.00
2022-09-23T23:34:15.750Z,100.00
2022-09-23T23:36:43.641Z,100.00
2022-09-23T23:39:11.236Z,100.00
2022-09-23T23:41:39.488Z,100.00
2022-09-23T23:44:07.735Z,100.00
2022-09-23T23:46:37.223Z,100.00
2022-09-23T23:49:04.591Z,100.00
2022-09-23T23:51:31.231Z,100.00
2022-09-23T23:53:58.963Z,100.00
2022-09-23T23:56:27.160Z,100.00
2022-09-23T23:58:56.173Z,100.00
